sensor_id;sensor_type;location;lat;lon;timestamp;P1;durP1;ratioP1;P2;durP2;ratioP2
21480;SDS011;10902;48.158;8.634;2023-05-10T00:00:57;0.50;;;0.17;;
21480;SDS011;10902;48.158;8.634;2023-05-10T00:03:23;0.60;;;0.20;;
21480;SDS011;10902;48.158;8.634;2023-05-10T00:05:49;0.70;;;0.20;;
21480;SDS011;10902;48.158;8.634;2023-05-10T00:08:14;0.82;;;0.25;;
21480;SDS011;10902;48.158;8.634;2023-05-10T00:10:40;0.73;;;0.30;;
21480;SDS011;10902;48.158;8.634;2023-05-10T00:13:05;1.85;;;0.60;;
21480;SDS011;10902;48.158;8.634;2023-05-10T00:15:31;0.70;;;0.20;;
21480;SDS011;10902;48.158;8.634;2023-05-10T00:17:57;1.33;;;0.30;;
21480;SDS011;10902;48.158;8.634;2023-05-10T00:20:22;1.08;;;0.30;;
21480;SDS011;10902;48.158;8.634;2023-05-10T00:22:48;0.88;;;0.30;;
21480;SDS011;10902;48.158;8.634;2023-05-10T00:25:14;0.90;;;0.32;;
21480;SDS011;10902;48.158;8.634;2023-05-10T00:27:39;1.60;;;0.47;;
21480;SDS011;10902;48.158;8.634;2023-05-10T00:30:05;2.03;;;0.38;;
21480;SDS011;10902;48.158;8.634;2023-05-10T00:32:31;1.55;;;0.40;;
21480;SDS011;10902;48.158;8.634;2023-05-10T00:34:57;0.77;;;0.35;;
21480;SDS011;10902;48.158;8.634;2023-05-10T00:37:23;0.90;;;0.38;;
21480;SDS011;10902;48.158;8.634;2023-05-10T00:39:48;1.98;;;0.40;;
21480;SDS011;10902;48.158;8.634;2023-05-10T00:42:14;4.03;;;0.60;;
21480;SDS011;10902;48.158;8.634;2023-05-10T00:44:39;1.13;;;0.38;;
21480;SDS011;10902;48.158;8.634;2023-05-10T00:47:05;1.05;;;0.40;;
21480;SDS011;10902;48.158;8.634;2023-05-10T00:49:31;0.68;;;0.30;;
21480;SDS011;10902;48.158;8.634;2023-05-10T00:51:57;1.75;;;0.40;;
21480;SDS011;10902;48.158;8.634;2023-05-10T00:54:23;1.42;;;0.50;;
21480;SDS011;10902;48.158;8.634;2023-05-10T00:56:48;1.08;;;0.40;;
21480;SDS011;10902;48.158;8.634;2023-05-10T00:59:17;1.25;;;0.40;;
21480;SDS011;10902;48.158;8.634;2023-05-10T01:01:47;0.88;;;0.35;;
21480;SDS011;10902;48.158;8.634;2023-05-10T01:04:13;1.23;;;0.30;;
21480;SDS011;10902;48.158;8.634;2023-05-10T01:06:39;1.02;;;0.30;;
21480;SDS011;10902;48.158;8.634;2023-05-10T01:09:05;3.63;;;0.50;;
21480;SDS011;10902;48.158;8.634;2023-05-10T01:11:32;0.40;;;0.30;;
21480;SDS011;10902;48.158;8.634;2023-05-10T01:14:00;2.00;;;0.32;;
21480;SDS011;10902;48.158;8.634;2023-05-10T01:16:26;1.80;;;0.45;;
21480;SDS011;10902;48.158;8.634;2023-05-10T01:18:52;0.70;;;0.30;;
21480;SDS011;10902;48.158;8.634;2023-05-10T01:35:10;2.13;;;0.40;;
21480;SDS011;10902;48.158;8.634;2023-05-10T01:37:42;1.58;;;0.55;;
21480;SDS011;10902;48.158;8.634;2023-05-10T01:40:23;1.58;;;0.40;;
21480;SDS011;10902;48.158;8.634;2023-05-10T01:43:15;1.40;;;0.50;;
21480;SDS011;10902;48.158;8.634;2023-05-10T01:45:56;2.03;;;0.50;;
21480;SDS011;10902;48.158;8.634;2023-05-10T01:48:29;2.13;;;0.70;;
21480;SDS011;10902;48.158;8.634;2023-05-10T01:50:56;2.08;;;0.52;;
21480;SDS011;10902;48.158;8.634;2023-05-10T01:53:23;0.70;;;0.40;;
21480;SDS011;10902;48.158;8.634;2023-05-10T01:55:50;1.02;;;0.40;;
21480;SDS011;10902;48.158;8.634;2023-05-10T01:58:20;2.80;;;0.60;;
21480;SDS011;10902;48.158;8.634;2023-05-10T02:00:49;2.40;;;0.50;;
21480;SDS011;10902;48.158;8.634;2023-05-10T02:03:17;1.63;;;0.60;;
21480;SDS011;10902;48.158;8.634;2023-05-10T02:05:45;1.55;;;0.50;;
21480;SDS011;10902;48.158;8.634;2023-05-10T02:08:11;2.63;;;0.60;;
21480;SDS011;10902;48.158;8.634;2023-05-10T02:10:39;2.50;;;0.65;;
21480;SDS011;10902;48.158;8.634;2023-05-10T02:13:06;3.22;;;0.60;;
21480;SDS011;10902;48.158;8.634;2023-05-10T02:15:33;7.22;;;1.25;;
21480;SDS011;10902;48.158;8.634;2023-05-10T02:18:00;1.70;;;0.50;;
21480;SDS011;10902;48.158;8.634;2023-05-10T02:20:28;1.27;;;0.50;;
21480;SDS011;10902;48.158;8.634;2023-05-10T02:22:57;1.67;;;0.60;;
21480;SDS011;10902;48.158;8.634;2023-05-10T02:25:23;1.67;;;0.80;;
21480;SDS011;10902;48.158;8.634;2023-05-10T02:27:50;2.35;;;0.63;;
21480;SDS011;10902;48.158;8.634;2023-05-10T02:30:20;2.65;;;0.85;;
21480;SDS011;10902;48.158;8.634;2023-05-10T02:32:47;2.95;;;0.70;;
21480;SDS011;10902;48.158;8.634;2023-05-10T02:35:14;3.47;;;0.70;;
21480;SDS011;10902;48.158;8.634;2023-05-10T02:37:41;1.70;;;0.70;;
21480;SDS011;10902;48.158;8.634;2023-05-10T02:40:08;1.90;;;0.73;;
21480;SDS011;10902;48.158;8.634;2023-05-10T02:42:36;2.13;;;0.80;;
21480;SDS011;10902;48.158;8.634;2023-05-10T02:45:13;3.38;;;0.80;;
21480;SDS011;10902;48.158;8.634;2023-05-10T02:47:42;4.00;;;1.00;;
21480;SDS011;10902;48.158;8.634;2023-05-10T02:50:08;2.60;;;1.10;;
21480;SDS011;10902;48.158;8.634;2023-05-10T02:52:37;4.13;;;1.00;;
21480;SDS011;10902;48.158;8.634;2023-05-10T02:55:12;3.78;;;1.70;;
21480;SDS011;10902;48.158;8.634;2023-05-10T02:57:41;6.20;;;3.05;;
21480;SDS011;10902;48.158;8.634;2023-05-10T03:00:13;6.35;;;1.92;;
21480;SDS011;10902;48.158;8.634;2023-05-10T03:02:39;5.45;;;1.90;;
21480;SDS011;10902;48.158;8.634;2023-05-10T03:05:04;4.22;;;1.55;;
21480;SDS011;10902;48.158;8.634;2023-05-10T03:07:30;6.70;;;1.75;;
21480;SDS011;10902;48.158;8.634;2023-05-10T03:09:56;3.90;;;1.50;;
21480;SDS011;10902;48.158;8.634;2023-05-10T03:15:13;4.88;;;1.80;;
21480;SDS011;10902;48.158;8.634;2023-05-10T03:17:57;4.55;;;1.98;;
21480;SDS011;10902;48.158;8.634;2023-05-10T03:20:31;3.63;;;1.80;;
21480;SDS011;10902;48.158;8.634;2023-05-10T03:23:17;5.57;;;2.00;;
21480;SDS011;10902;48.158;8.634;2023-05-10T03:25:48;3.47;;;1.40;;
21480;SDS011;10902;48.158;8.634;2023-05-10T03:28:15;5.22;;;2.03;;
21480;SDS011;10902;48.158;8.634;2023-05-10T03:30:42;4.25;;;2.08;;
21480;SDS011;10902;48.158;8.634;2023-05-10T03:33:08;5.95;;;2.08;;
21480;SDS011;10902;48.158;8.634;2023-05-10T03:35:34;4.28;;;1.80;;
21480;SDS011;10902;48.158;8.634;2023-05-10T03:38:00;5.30;;;2.20;;
21480;SDS011;10902;48.158;8.634;2023-05-10T03:40:26;9.45;;;2.42;;
21480;SDS011;10902;48.158;8.634;2023-05-10T03:43:00;4.70;;;1.80;;
21480;SDS011;10902;48.158;8.634;2023-05-10T03:45:26;4.43;;;1.58;;
21480;SDS011;10902;48.158;8.634;2023-05-10T03:47:51;4.22;;;1.73;;
21480;SDS011;10902;48.158;8.634;2023-05-10T03:50:17;4.63;;;2.22;;
21480;SDS011;10902;48.158;8.634;2023-05-10T03:52:43;3.90;;;1.60;;
21480;SDS011;10902;48.158;8.634;2023-05-10T03:55:10;7.65;;;2.10;;
21480;SDS011;10902;48.158;8.634;2023-05-10T03:57:35;4.65;;;2.00;;
21480;SDS011;10902;48.158;8.634;2023-05-10T04:00:01;4.35;;;1.90;;
21480;SDS011;10902;48.158;8.634;2023-05-10T04:02:28;5.43;;;2.35;;
21480;SDS011;10902;48.158;8.634;2023-05-10T04:04:54;5.95;;;2.58;;
21480;SDS011;10902;48.158;8.634;2023-05-10T04:07:20;4.93;;;2.10;;
21480;SDS011;10902;48.158;8.634;2023-05-10T04:09:46;4.25;;;2.33;;
21480;SDS011;10902;48.158;8.634;2023-05-10T04:12:12;4.72;;;2.20;;
21480;SDS011;10902;48.158;8.634;2023-05-10T04:14:37;3.45;;;1.63;;
21480;SDS011;10902;48.158;8.634;2023-05-10T04:17:03;4.30;;;2.25;;
21480;SDS011;10902;48.158;8.634;2023-05-10T04:19:31;3.60;;;1.75;;
21480;SDS011;10902;48.158;8.634;2023-05-10T04:21:58;3.63;;;1.80;;
21480;SDS011;10902;48.158;8.634;2023-05-10T04:24:23;4.50;;;1.40;;
21480;SDS011;10902;48.158;8.634;2023-05-10T04:26:49;4.43;;;1.75;;
21480;SDS011;10902;48.158;8.634;2023-05-10T04:29:15;4.72;;;1.50;;
21480;SDS011;10902;48.158;8.634;2023-05-10T04:31:41;3.67;;;2.05;;
21480;SDS011;10902;48.158;8.634;2023-05-10T04:34:06;3.45;;;1.80;;
21480;SDS011;10902;48.158;8.634;2023-05-10T04:36:32;3.38;;;1.70;;
21480;SDS011;10902;48.158;8.634;2023-05-10T04:39:00;3.78;;;1.60;;
21480;SDS011;10902;48.158;8.634;2023-05-10T04:41:25;3.30;;;1.70;;
21480;SDS011;10902;48.158;8.634;2023-05-10T04:43:51;4.00;;;2.10;;
21480;SDS011;10902;48.158;8.634;2023-05-10T04:46:16;5.40;;;1.98;;
21480;SDS011;10902;48.158;8.634;2023-05-10T04:48:42;3.80;;;1.95;;
21480;SDS011;10902;48.158;8.634;2023-05-10T04:51:08;5.53;;;1.88;;
21480;SDS011;10902;48.158;8.634;2023-05-10T04:53:33;3.38;;;1.60;;
21480;SDS011;10902;48.158;8.634;2023-05-10T04:55:59;3.80;;;1.73;;
21480;SDS011;10902;48.158;8.634;2023-05-10T04:58:24;3.10;;;1.70;;
21480;SDS011;10902;48.158;8.634;2023-05-10T05:00:50;4.28;;;1.90;;
21480;SDS011;10902;48.158;8.634;2023-05-10T05:03:16;5.90;;;1.98;;
21480;SDS011;10902;48.158;8.634;2023-05-10T05:05:42;4.35;;;1.92;;
21480;SDS011;10902;48.158;8.634;2023-05-10T05:08:09;4.95;;;2.08;;
21480;SDS011;10902;48.158;8.634;2023-05-10T05:10:34;6.63;;;2.00;;
21480;SDS011;10902;48.158;8.634;2023-05-10T05:13:00;4.75;;;2.40;;
21480;SDS011;10902;48.158;8.634;2023-05-10T05:15:25;4.90;;;2.30;;
21480;SDS011;10902;48.158;8.634;2023-05-10T05:17:51;7.32;;;3.80;;
21480;SDS011;10902;48.158;8.634;2023-05-10T05:20:17;8.07;;;3.05;;
21480;SDS011;10902;48.158;8.634;2023-05-10T05:22:43;6.28;;;2.90;;
21480;SDS011;10902;48.158;8.634;2023-05-10T05:25:09;5.70;;;2.50;;
21480;SDS011;10902;48.158;8.634;2023-05-10T05:27:36;5.00;;;2.40;;
21480;SDS011;10902;48.158;8.634;2023-05-10T05:30:02;6.88;;;2.80;;
21480;SDS011;10902;48.158;8.634;2023-05-10T05:32:29;8.27;;;3.20;;
21480;SDS011;10902;48.158;8.634;2023-05-10T05:34:55;5.53;;;2.85;;
21480;SDS011;10902;48.158;8.634;2023-05-10T05:37:21;5.40;;;2.60;;
21480;SDS011;10902;48.158;8.634;2023-05-10T05:39:47;6.18;;;2.63;;
21480;SDS011;10902;48.158;8.634;2023-05-10T05:42:13;6.30;;;2.97;;
21480;SDS011;10902;48.158;8.634;2023-05-10T05:44:39;6.57;;;3.00;;
21480;SDS011;10902;48.158;8.634;2023-05-10T05:47:05;5.57;;;2.60;;
21480;SDS011;10902;48.158;8.634;2023-05-10T05:49:31;5.45;;;2.80;;
21480;SDS011;10902;48.158;8.634;2023-05-10T05:52:01;6.60;;;3.08;;
21480;SDS011;10902;48.158;8.634;2023-05-10T05:54:27;6.63;;;3.03;;
21480;SDS011;10902;48.158;8.634;2023-05-10T05:56:53;6.55;;;2.53;;
21480;SDS011;10902;48.158;8.634;2023-05-10T05:59:20;7.80;;;3.22;;
21480;SDS011;10902;48.158;8.634;2023-05-10T06:01:46;6.30;;;2.20;;
21480;SDS011;10902;48.158;8.634;2023-05-10T06:04:12;3.97;;;2.17;;
21480;SDS011;10902;48.158;8.634;2023-05-10T06:06:37;6.15;;;2.42;;
21480;SDS011;10902;48.158;8.634;2023-05-10T06:09:03;5.97;;;2.63;;
21480;SDS011;10902;48.158;8.634;2023-05-10T06:11:29;6.18;;;2.45;;
21480;SDS011;10902;48.158;8.634;2023-05-10T06:13:56;5.50;;;2.30;;
21480;SDS011;10902;48.158;8.634;2023-05-10T06:16:22;4.93;;;2.13;;
21480;SDS011;10902;48.158;8.634;2023-05-10T06:18:48;3.55;;;2.00;;
21480;SDS011;10902;48.158;8.634;2023-05-10T06:21:14;5.32;;;2.10;;
21480;SDS011;10902;48.158;8.634;2023-05-10T06:23:40;4.20;;;2.05;;
21480;SDS011;10902;48.158;8.634;2023-05-10T06:26:05;5.00;;;2.30;;
21480;SDS011;10902;48.158;8.634;2023-05-10T06:28:31;5.93;;;2.47;;
21480;SDS011;10902;48.158;8.634;2023-05-10T06:30:57;5.38;;;2.60;;
21480;SDS011;10902;48.158;8.634;2023-05-10T06:33:22;4.07;;;2.00;;
21480;SDS011;10902;48.158;8.634;2023-05-10T06:35:48;4.57;;;2.10;;
21480;SDS011;10902;48.158;8.634;2023-05-10T06:38:14;4.75;;;2.35;;
21480;SDS011;10902;48.158;8.634;2023-05-10T06:40:43;6.20;;;2.50;;
21480;SDS011;10902;48.158;8.634;2023-05-10T06:43:09;5.65;;;2.20;;
21480;SDS011;10902;48.158;8.634;2023-05-10T06:45:35;4.90;;;1.70;;
21480;SDS011;10902;48.158;8.634;2023-05-10T06:48:00;4.05;;;1.60;;
21480;SDS011;10902;48.158;8.634;2023-05-10T06:50:26;5.03;;;1.48;;
21480;SDS011;10902;48.158;8.634;2023-05-10T06:52:51;4.75;;;1.80;;
21480;SDS011;10902;48.158;8.634;2023-05-10T06:55:17;3.25;;;1.63;;
21480;SDS011;10902;48.158;8.634;2023-05-10T06:57:43;3.38;;;1.50;;
21480;SDS011;10902;48.158;8.634;2023-05-10T07:00:08;5.05;;;1.73;;
21480;SDS011;10902;48.158;8.634;2023-05-10T07:02:37;4.18;;;1.60;;
21480;SDS011;10902;48.158;8.634;2023-05-10T07:05:03;3.92;;;1.35;;
21480;SDS011;10902;48.158;8.634;2023-05-10T07:07:28;3.17;;;1.20;;
21480;SDS011;10902;48.158;8.634;2023-05-10T07:09:54;3.90;;;1.27;;
21480;SDS011;10902;48.158;8.634;2023-05-10T07:12:21;2.45;;;0.93;;
21480;SDS011;10902;48.158;8.634;2023-05-10T07:14:47;5.57;;;1.15;;
21480;SDS011;10902;48.158;8.634;2023-05-10T07:17:12;3.40;;;0.90;;
21480;SDS011;10902;48.158;8.634;2023-05-10T07:19:38;3.13;;;0.55;;
21480;SDS011;10902;48.158;8.634;2023-05-10T07:22:03;2.55;;;0.70;;
21480;SDS011;10902;48.158;8.634;2023-05-10T07:24:29;2.80;;;0.88;;
21480;SDS011;10902;48.158;8.634;2023-05-10T07:26:56;3.55;;;1.00;;
21480;SDS011;10902;48.158;8.634;2023-05-10T07:29:21;4.07;;;0.90;;
21480;SDS011;10902;48.158;8.634;2023-05-10T07:31:47;3.25;;;0.82;;
21480;SDS011;10902;48.158;8.634;2023-05-10T07:34:12;2.50;;;1.00;;
21480;SDS011;10902;48.158;8.634;2023-05-10T07:36:38;5.78;;;1.10;;
21480;SDS011;10902;48.158;8.634;2023-05-10T07:39:03;3.95;;;1.10;;
21480;SDS011;10902;48.158;8.634;2023-05-10T07:41:30;2.80;;;0.90;;
21480;SDS011;10902;48.158;8.634;2023-05-10T07:43:55;5.15;;;1.00;;
21480;SDS011;10902;48.158;8.634;2023-05-10T07:46:21;3.28;;;1.10;;
21480;SDS011;10902;48.158;8.634;2023-05-10T07:48:46;3.45;;;0.88;;
21480;SDS011;10902;48.158;8.634;2023-05-10T07:51:12;2.88;;;0.90;;
21480;SDS011;10902;48.158;8.634;2023-05-10T07:53:38;4.22;;;1.10;;
21480;SDS011;10902;48.158;8.634;2023-05-10T07:56:23;4.03;;;1.10;;
21480;SDS011;10902;48.158;8.634;2023-05-10T07:58:50;3.47;;;0.98;;
21480;SDS011;10902;48.158;8.634;2023-05-10T08:01:16;4.70;;;1.08;;
21480;SDS011;10902;48.158;8.634;2023-05-10T08:03:41;4.22;;;1.20;;
21480;SDS011;10902;48.158;8.634;2023-05-10T08:06:07;2.72;;;0.85;;
21480;SDS011;10902;48.158;8.634;2023-05-10T08:08:32;4.13;;;1.10;;
21480;SDS011;10902;48.158;8.634;2023-05-10T08:10:58;3.47;;;1.10;;
21480;SDS011;10902;48.158;8.634;2023-05-10T08:13:23;3.30;;;1.27;;
21480;SDS011;10902;48.158;8.634;2023-05-10T08:15:49;2.47;;;1.00;;
21480;SDS011;10902;48.158;8.634;2023-05-10T08:18:17;2.22;;;0.80;;
21480;SDS011;10902;48.158;8.634;2023-05-10T08:20:43;3.33;;;0.90;;
21480;SDS011;10902;48.158;8.634;2023-05-10T08:23:09;2.72;;;0.95;;
21480;SDS011;10902;48.158;8.634;2023-05-10T08:25:34;3.17;;;0.95;;
21480;SDS011;10902;48.158;8.634;2023-05-10T08:28:00;3.58;;;1.30;;
21480;SDS011;10902;48.158;8.634;2023-05-10T08:30:25;3.13;;;1.00;;
21480;SDS011;10902;48.158;8.634;2023-05-10T08:32:51;2.53;;;1.05;;
21480;SDS011;10902;48.158;8.634;2023-05-10T08:35:17;3.85;;;1.20;;
21480;SDS011;10902;48.158;8.634;2023-05-10T08:37:42;2.50;;;0.90;;
21480;SDS011;10902;48.158;8.634;2023-05-10T08:40:08;2.80;;;0.82;;
21480;SDS011;10902;48.158;8.634;2023-05-10T08:42:36;1.95;;;0.57;;
21480;SDS011;10902;48.158;8.634;2023-05-10T08:45:05;2.25;;;0.45;;
21480;SDS011;10902;48.158;8.634;2023-05-10T08:47:33;2.83;;;0.50;;
21480;SDS011;10902;48.158;8.634;2023-05-10T08:50:02;1.63;;;0.50;;
21480;SDS011;10902;48.158;8.634;2023-05-10T08:52:28;1.98;;;0.63;;
21480;SDS011;10902;48.158;8.634;2023-05-10T08:54:55;1.70;;;0.52;;
21480;SDS011;10902;48.158;8.634;2023-05-10T08:57:21;1.08;;;0.30;;
21480;SDS011;10902;48.158;8.634;2023-05-10T08:59:47;2.20;;;0.50;;
21480;SDS011;10902;48.158;8.634;2023-05-10T09:02:13;1.55;;;0.47;;
21480;SDS011;10902;48.158;8.634;2023-05-10T09:04:39;2.22;;;0.50;;
21480;SDS011;10902;48.158;8.634;2023-05-10T09:07:05;1.98;;;0.50;;
21480;SDS011;10902;48.158;8.634;2023-05-10T09:09:32;2.83;;;0.60;;
21480;SDS011;10902;48.158;8.634;2023-05-10T09:11:58;2.58;;;0.60;;
21480;SDS011;10902;48.158;8.634;2023-05-10T09:14:24;2.30;;;0.60;;
21480;SDS011;10902;48.158;8.634;2023-05-10T09:16:50;1.42;;;0.50;;
21480;SDS011;10902;48.158;8.634;2023-05-10T09:19:16;2.85;;;0.75;;
21480;SDS011;10902;48.158;8.634;2023-05-10T09:21:42;3.40;;;0.65;;
21480;SDS011;10902;48.158;8.634;2023-05-10T09:24:08;1.70;;;0.57;;
21480;SDS011;10902;48.158;8.634;2023-05-10T09:26:34;2.38;;;0.60;;
21480;SDS011;10902;48.158;8.634;2023-05-10T09:29:01;2.35;;;0.70;;
21480;SDS011;10902;48.158;8.634;2023-05-10T09:31:42;5.78;;;0.70;;
21480;SDS011;10902;48.158;8.634;2023-05-10T09:34:16;2.90;;;0.70;;
21480;SDS011;10902;48.158;8.634;2023-05-10T09:36:50;2.63;;;0.80;;
21480;SDS011;10902;48.158;8.634;2023-05-10T09:39:16;2.38;;;0.75;;
21480;SDS011;10902;48.158;8.634;2023-05-10T09:41:42;2.45;;;0.73;;
21480;SDS011;10902;48.158;8.634;2023-05-10T09:44:08;2.45;;;0.82;;
21480;SDS011;10902;48.158;8.634;2023-05-10T09:46:37;1.67;;;0.43;;
21480;SDS011;10902;48.158;8.634;2023-05-10T09:49:03;2.20;;;0.60;;
21480;SDS011;10902;48.158;8.634;2023-05-10T09:51:30;2.60;;;0.70;;
21480;SDS011;10902;48.158;8.634;2023-05-10T09:54:13;2.42;;;0.65;;
21480;SDS011;10902;48.158;8.634;2023-05-10T09:56:40;2.45;;;0.68;;
21480;SDS011;10902;48.158;8.634;2023-05-10T09:59:07;3.03;;;0.47;;
21480;SDS011;10902;48.158;8.634;2023-05-10T10:01:35;2.42;;;0.50;;
21480;SDS011;10902;48.158;8.634;2023-05-10T10:04:02;2.45;;;0.68;;
21480;SDS011;10902;48.158;8.634;2023-05-10T10:06:39;2.50;;;0.80;;
21480;SDS011;10902;48.158;8.634;2023-05-10T10:09:05;2.80;;;0.50;;
21480;SDS011;10902;48.158;8.634;2023-05-10T10:11:34;2.05;;;0.50;;
21480;SDS011;10902;48.158;8.634;2023-05-10T10:14:01;2.22;;;0.50;;
21480;SDS011;10902;48.158;8.634;2023-05-10T10:16:30;3.30;;;0.80;;
21480;SDS011;10902;48.158;8.634;2023-05-10T10:18:57;3.47;;;0.70;;
21480;SDS011;10902;48.158;8.634;2023-05-10T10:21:23;2.28;;;0.60;;
21480;SDS011;10902;48.158;8.634;2023-05-10T10:23:49;2.53;;;0.52;;
21480;SDS011;10902;48.158;8.634;2023-05-10T10:26:15;2.25;;;0.60;;
21480;SDS011;10902;48.158;8.634;2023-05-10T10:34:47;3.95;;;0.75;;
21480;SDS011;10902;48.158;8.634;2023-05-10T10:37:13;3.25;;;0.47;;
21480;SDS011;10902;48.158;8.634;2023-05-10T10:39:39;1.77;;;0.40;;
21480;SDS011;10902;48.158;8.634;2023-05-10T10:42:04;4.18;;;0.98;;
21480;SDS011;10902;48.158;8.634;2023-05-10T10:57:52;3.40;;;1.10;;
21480;SDS011;10902;48.158;8.634;2023-05-10T11:05:40;3.92;;;1.10;;
21480;SDS011;10902;48.158;8.634;2023-05-10T11:10:40;3.72;;;1.17;;
21480;SDS011;10902;48.158;8.634;2023-05-10T11:13:14;2.90;;;1.13;;
21480;SDS011;10902;48.158;8.634;2023-05-10T11:15:39;3.92;;;1.15;;
21480;SDS011;10902;48.158;8.634;2023-05-10T11:18:31;2.80;;;1.00;;
21480;SDS011;10902;48.158;8.634;2023-05-10T11:20:57;3.63;;;1.13;;
21480;SDS011;10902;48.158;8.634;2023-05-10T11:23:29;3.95;;;1.33;;
21480;SDS011;10902;48.158;8.634;2023-05-10T11:25:55;3.25;;;0.90;;
21480;SDS011;10902;48.158;8.634;2023-05-10T11:28:21;5.13;;;1.10;;
21480;SDS011;10902;48.158;8.634;2023-05-10T11:30:47;3.30;;;0.90;;
21480;SDS011;10902;48.158;8.634;2023-05-10T11:33:16;6.10;;;1.17;;
21480;SDS011;10902;48.158;8.634;2023-05-10T11:35:43;3.58;;;0.98;;
21480;SDS011;10902;48.158;8.634;2023-05-10T11:38:09;3.80;;;1.08;;
21480;SDS011;10902;48.158;8.634;2023-05-10T11:40:35;3.65;;;1.00;;
21480;SDS011;10902;48.158;8.634;2023-05-10T11:43:02;5.03;;;1.10;;
21480;SDS011;10902;48.158;8.634;2023-05-10T11:45:28;3.95;;;1.00;;
21480;SDS011;10902;48.158;8.634;2023-05-10T11:47:57;4.25;;;0.98;;
21480;SDS011;10902;48.158;8.634;2023-05-10T11:50:23;4.68;;;0.80;;
21480;SDS011;10902;48.158;8.634;2023-05-10T11:52:53;3.60;;;0.90;;
21480;SDS011;10902;48.158;8.634;2023-05-10T11:55:20;3.60;;;0.70;;
21480;SDS011;10902;48.158;8.634;2023-05-10T11:57:46;2.78;;;0.80;;
21480;SDS011;10902;48.158;8.634;2023-05-10T12:00:12;3.63;;;0.93;;
21480;SDS011;10902;48.158;8.634;2023-05-10T12:02:38;6.30;;;1.08;;
21480;SDS011;10902;48.158;8.634;2023-05-10T12:05:04;6.07;;;1.05;;
21480;SDS011;10902;48.158;8.634;2023-05-10T12:07:31;3.95;;;0.68;;
21480;SDS011;10902;48.158;8.634;2023-05-10T12:10:06;3.72;;;1.05;;
21480;SDS011;10902;48.158;8.634;2023-05-10T12:12:40;3.90;;;0.85;;
21480;SDS011;10902;48.158;8.634;2023-05-10T12:15:10;3.30;;;0.60;;
21480;SDS011;10902;48.158;8.634;2023-05-10T12:17:49;2.75;;;0.73;;
21480;SDS011;10902;48.158;8.634;2023-05-10T12:20:16;1.90;;;0.55;;
21480;SDS011;10902;48.158;8.634;2023-05-10T12:22:50;3.30;;;0.80;;
21480;SDS011;10902;48.158;8.634;2023-05-10T12:25:21;2.97;;;0.80;;
21480;SDS011;10902;48.158;8.634;2023-05-10T12:27:50;4.13;;;0.80;;
21480;SDS011;10902;48.158;8.634;2023-05-10T12:30:27;2.60;;;0.70;;
21480;SDS011;10902;48.158;8.634;2023-05-10T12:32:54;4.10;;;0.75;;
21480;SDS011;10902;48.158;8.634;2023-05-10T12:35:32;2.10;;;0.60;;
21480;SDS011;10902;48.158;8.634;2023-05-10T12:38:26;2.95;;;0.80;;
21480;SDS011;10902;48.158;8.634;2023-05-10T12:41:04;3.60;;;0.80;;
21480;SDS011;10902;48.158;8.634;2023-05-10T12:43:35;3.35;;;0.90;;
21480;SDS011;10902;48.158;8.634;2023-05-10T12:46:04;3.20;;;0.80;;
21480;SDS011;10902;48.158;8.634;2023-05-10T12:48:35;7.10;;;1.15;;
21480;SDS011;10902;48.158;8.634;2023-05-10T12:51:01;5.63;;;1.10;;
21480;SDS011;10902;48.158;8.634;2023-05-10T12:53:28;3.15;;;0.80;;
21480;SDS011;10902;48.158;8.634;2023-05-10T12:55:54;3.80;;;0.60;;
21480;SDS011;10902;48.158;8.634;2023-05-10T12:58:19;2.42;;;0.73;;
21480;SDS011;10902;48.158;8.634;2023-05-10T13:00:45;2.90;;;0.70;;
21480;SDS011;10902;48.158;8.634;2023-05-10T13:03:11;3.22;;;0.70;;
21480;SDS011;10902;48.158;8.634;2023-05-10T13:05:37;2.10;;;0.47;;
21480;SDS011;10902;48.158;8.634;2023-05-10T13:08:03;4.25;;;0.93;;
21480;SDS011;10902;48.158;8.634;2023-05-10T13:10:29;6.82;;;0.85;;
21480;SDS011;10902;48.158;8.634;2023-05-10T13:12:56;2.33;;;0.55;;
21480;SDS011;10902;48.158;8.634;2023-05-10T13:15:22;4.43;;;0.98;;
21480;SDS011;10902;48.158;8.634;2023-05-10T13:17:48;4.63;;;0.80;;
21480;SDS011;10902;48.158;8.634;2023-05-10T13:20:14;5.75;;;0.80;;
21480;SDS011;10902;48.158;8.634;2023-05-10T13:22:40;3.08;;;0.75;;
21480;SDS011;10902;48.158;8.634;2023-05-10T13:25:08;3.60;;;0.68;;
21480;SDS011;10902;48.158;8.634;2023-05-10T13:27:33;2.85;;;0.75;;
21480;SDS011;10902;48.158;8.634;2023-05-10T13:29:59;3.25;;;1.00;;
21480;SDS011;10902;48.158;8.634;2023-05-10T13:32:25;5.75;;;0.93;;
21480;SDS011;10902;48.158;8.634;2023-05-10T13:34:51;3.83;;;0.90;;
21480;SDS011;10902;48.158;8.634;2023-05-10T13:37:16;4.82;;;1.05;;
21480;SDS011;10902;48.158;8.634;2023-05-10T13:39:42;3.78;;;1.10;;
21480;SDS011;10902;48.158;8.634;2023-05-10T13:42:08;5.45;;;1.00;;
21480;SDS011;10902;48.158;8.634;2023-05-10T13:44:33;3.97;;;1.10;;
21480;SDS011;10902;48.158;8.634;2023-05-10T13:46:59;3.55;;;0.90;;
21480;SDS011;10902;48.158;8.634;2023-05-10T13:49:25;5.55;;;0.93;;
21480;SDS011;10902;48.158;8.634;2023-05-10T13:51:50;3.60;;;0.80;;
21480;SDS011;10902;48.158;8.634;2023-05-10T13:54:16;3.47;;;0.90;;
21480;SDS011;10902;48.158;8.634;2023-05-10T13:56:44;2.20;;;0.60;;
21480;SDS011;10902;48.158;8.634;2023-05-10T13:59:12;3.10;;;0.75;;
21480;SDS011;10902;48.158;8.634;2023-05-10T14:01:38;5.28;;;1.10;;
21480;SDS011;10902;48.158;8.634;2023-05-10T14:04:05;5.43;;;0.95;;
21480;SDS011;10902;48.158;8.634;2023-05-10T14:06:31;4.43;;;0.95;;
21480;SDS011;10902;48.158;8.634;2023-05-10T14:08:56;2.60;;;0.52;;
21480;SDS011;10902;48.158;8.634;2023-05-10T14:11:22;3.10;;;0.70;;
21480;SDS011;10902;48.158;8.634;2023-05-10T14:13:48;3.75;;;0.85;;
21480;SDS011;10902;48.158;8.634;2023-05-10T14:16:14;3.65;;;0.70;;
21480;SDS011;10902;48.158;8.634;2023-05-10T14:18:39;8.02;;;1.27;;
21480;SDS011;10902;48.158;8.634;2023-05-10T14:21:05;3.88;;;0.90;;
21480;SDS011;10902;48.158;8.634;2023-05-10T14:23:31;3.65;;;1.30;;
21480;SDS011;10902;48.158;8.634;2023-05-10T14:25:57;4.93;;;1.10;;
21480;SDS011;10902;48.158;8.634;2023-05-10T14:28:22;4.95;;;1.35;;
21480;SDS011;10902;48.158;8.634;2023-05-10T14:30:49;4.45;;;1.40;;
21480;SDS011;10902;48.158;8.634;2023-05-10T14:33:16;5.97;;;1.70;;
21480;SDS011;10902;48.158;8.634;2023-05-10T14:35:41;4.50;;;1.15;;
21480;SDS011;10902;48.158;8.634;2023-05-10T14:38:07;3.78;;;1.58;;
21480;SDS011;10902;48.158;8.634;2023-05-10T14:40:33;2.35;;;0.90;;
21480;SDS011;10902;48.158;8.634;2023-05-10T14:42:59;5.15;;;1.20;;
21480;SDS011;10902;48.158;8.634;2023-05-10T14:45:25;2.90;;;0.90;;
21480;SDS011;10902;48.158;8.634;2023-05-10T14:47:50;8.55;;;1.30;;
21480;SDS011;10902;48.158;8.634;2023-05-10T14:50:16;3.83;;;1.10;;
21480;SDS011;10902;48.158;8.634;2023-05-10T14:52:42;2.75;;;0.80;;
21480;SDS011;10902;48.158;8.634;2023-05-10T14:55:09;5.10;;;0.90;;
21480;SDS011;10902;48.158;8.634;2023-05-10T14:57:34;3.13;;;0.90;;
21480;SDS011;10902;48.158;8.634;2023-05-10T15:00:00;3.35;;;0.85;;
21480;SDS011;10902;48.158;8.634;2023-05-10T15:02:25;2.40;;;0.70;;
21480;SDS011;10902;48.158;8.634;2023-05-10T15:04:51;3.83;;;0.90;;
21480;SDS011;10902;48.158;8.634;2023-05-10T15:07:16;2.78;;;0.70;;
21480;SDS011;10902;48.158;8.634;2023-05-10T15:09:43;2.75;;;0.50;;
21480;SDS011;10902;48.158;8.634;2023-05-10T15:12:11;1.95;;;0.52;;
21480;SDS011;10902;48.158;8.634;2023-05-10T15:14:37;2.97;;;0.70;;
21480;SDS011;10902;48.158;8.634;2023-05-10T15:17:03;2.63;;;0.63;;
21480;SDS011;10902;48.158;8.634;2023-05-10T15:19:31;2.72;;;0.57;;
21480;SDS011;10902;48.158;8.634;2023-05-10T15:21:58;2.33;;;0.60;;
21480;SDS011;10902;48.158;8.634;2023-05-10T15:24:23;2.22;;;0.70;;
21480;SDS011;10902;48.158;8.634;2023-05-10T15:26:49;1.88;;;0.50;;
21480;SDS011;10902;48.158;8.634;2023-05-10T15:29:15;2.22;;;0.60;;
21480;SDS011;10902;48.158;8.634;2023-05-10T15:31:44;3.00;;;0.68;;